Time;durP1;ratioP1;P1;durP2;ratioP2;P2;SDS_P1;SDS_P2;PMS_P1;PMS_P2;Temp;Humidity;BMP_temperature;BMP_pressure;BME280_temperature;BME280_humidity;BME280_pressure;Samples;Min_cycle;Max_cycle;Signal;HPM_P1;HPM_P2
2022/08/08 00:01:57;;;;;;;0.00;0.00;;;;;;;;;;5070891;28;20028;-59
2022/08/08 00:04:28;;;;;;;0.00;0.00;;;;;;;;;;5071236;28;20016;-60
2022/08/08 00:06:56;;;;;;;0.00;0.00;;;;;;;;;;5071778;28;20016;-61
2022/08/08 00:09:42;;;;;;;0.00;0.00;;;;;;;;;;5071597;28;20457;-61
2022/08/08 00:12:09;;;;;;;0.00;0.00;;;;;;;;;;5071338;28;20025;-60
2022/08/08 00:14:37;;;;;;;0.00;0.00;;;;;;;;;;5070541;28;20123;-60
2022/08/08 00:17:10;;;;;;;0.00;0.00;;;;;;;;;;5071753;28;20036;-60
2022/08/08 00:19:44;;;;;;;0.00;0.00;;;;;;;;;;5071313;28;20039;-60
2022/08/08 00:22:21;;;;;;;0.00;0.00;;;;;;;;;;5071410;28;20158;-59
2022/08/08 00:24:49;;;;;;;0.00;0.00;;;;;;;;;;5071189;28;20032;-59
2022/08/08 00:27:16;;;;;;;0.00;0.00;;;;;;;;;;5071433;28;20027;-60
2022/08/08 00:29:41;;;;;;;0.00;0.00;;;;;;;;;;5070015;28;20016;-61
2022/08/08 00:32:12;;;;;;;0.00;0.00;;;;;;;;;;5075935;28;20032;-60
2022/08/08 00:35:12;;;;;;;0.00;0.00;;;;;;;;;;5071011;28;20267;-60
2022/08/08 00:37:56;;;;;;;0.00;0.00;;;;;;;;;;5088660;28;20027;-59
2022/08/08 00:40:22;;;;;;;0.00;0.00;;;;;;;;;;5091338;28;20069;-59
2022/08/08 00:42:47;;;;;;;0.00;0.00;;;;;;;;;;5090906;28;20024;-59
2022/08/08 00:45:31;;;;;;;0.00;0.00;;;;;;;;;;5087894;28;20024;-58
2022/08/08 00:48:04;;;;;;;0.00;0.00;;;;;;;;;;5088886;28;20260;-60
2022/08/08 00:50:48;;;;;;;0.00;0.00;;;;;;;;;;5070551;28;20052;-62
2022/08/08 00:53:13;;;;;;;0.00;0.00;;;;;;;;;;5071063;28;20039;-61
2022/08/08 00:55:57;;;;;;;0.00;0.00;;;;;;;;;;5070584;28;20200;-61
2022/08/08 00:58:25;;;;;;;0.00;0.00;;;;;;;;;;5070012;28;20716;-61
2022/08/08 01:00:56;;;;;;;0.00;0.00;;;;;;;;;;5071333;28;20550;-61
2022/08/08 01:03:24;;;;;;;0.00;0.00;;;;;;;;;;5070767;28;20008;-62
2022/08/08 01:05:52;;;;;;;0.00;0.00;;;;;;;;;;5083743;28;20016;-60
2022/08/08 01:08:29;;;;;;;0.00;0.00;;;;;;;;;;5090997;28;20113;-61
2022/08/08 01:10:57;;;;;;;0.05;0.05;;;;;;;;;;5090731;28;20023;-61
2022/08/08 01:13:28;;;;;;;0.00;0.00;;;;;;;;;;5090698;28;20036;-61
2022/08/08 01:16:13;;;;;;;0.00;0.00;;;;;;;;;;5051898;28;20108;-61
2022/08/08 01:18:38;;;;;;;0.00;0.00;;;;;;;;;;5088206;28;20739;-62
2022/08/08 01:21:22;;;;;;;0.00;0.00;;;;;;;;;;5090566;28;20031;-59
2022/08/08 01:23:56;;;;;;;0.10;0.10;;;;;;;;;;5090233;28;20550;-62
2022/08/08 01:26:21;;;;;;;0.00;0.00;;;;;;;;;;5089289;28;20012;-60
2022/08/08 01:28:46;;;;;;;0.00;0.00;;;;;;;;;;5068586;28;20012;-60
2022/08/08 01:31:14;;;;;;;0.00;0.00;;;;;;;;;;5070182;28;20043;-60
2022/08/08 01:33:46;;;;;;;0.03;0.00;;;;;;;;;;5069779;28;20312;-61
2022/08/08 01:36:30;;;;;;;0.00;0.00;;;;;;;;;;5070053;28;20020;-60
2022/08/08 01:39:13;;;;;;;0.00;0.00;;;;;;;;;;5070352;28;20036;-60
2022/08/08 01:41:49;;;;;;;0.00;0.00;;;;;;;;;;5069110;28;20031;-61
2022/08/08 01:44:20;;;;;;;0.00;0.00;;;;;;;;;;5069577;28;20024;-60
2022/08/08 01:46:56;;;;;;;0.00;0.00;;;;;;;;;;5069679;28;20094;-61
2022/08/08 01:49:43;;;;;;;0.00;0.00;;;;;;;;;;5069749;28;20051;-60
2022/08/08 01:52:12;;;;;;;0.00;0.00;;;;;;;;;;5070059;28;20081;-60
2022/08/08 01:54:55;;;;;;;0.00;0.00;;;;;;;;;;5069514;28;20025;-61
2022/08/08 01:57:37;;;;;;;0.00;0.00;;;;;;;;;;5072117;28;20525;-59
2022/08/08 02:00:02;;;;;;;0.00;0.00;;;;;;;;;;5049441;28;20024;-61
2022/08/08 02:02:46;;;;;;;0.00;0.00;;;;;;;;;;5073980;28;20073;-61
2022/08/08 02:05:19;;;;;;;0.00;0.00;;;;;;;;;;5073588;28;20483;-60
2022/08/08 02:07:45;;;;;;;0.00;0.00;;;;;;;;;;5068674;28;20024;-61
2022/08/08 02:10:13;;;;;;;0.00;0.00;;;;;;;;;;5069877;28;20020;-60
2022/08/08 02:12:49;;;;;;;0.22;0.22;;;;;;;;;;5069215;28;20032;-60
2022/08/08 02:15:34;;;;;;;0.00;0.00;;;;;;;;;;5079203;28;20024;-60
2022/08/08 02:18:08;;;;;;;0.00;0.00;;;;;;;;;;5089263;28;20093;-60
2022/08/08 02:20:41;;;;;;;0.00;0.00;;;;;;;;;;5089091;28;20024;-61
2022/08/08 02:23:24;;;;;;;0.00;0.00;;;;;;;;;;5089771;28;20016;-60
2022/08/08 02:25:59;;;;;;;0.00;0.00;;;;;;;;;;5078474;28;20028;-61
2022/08/08 02:28:24;;;;;;;0.00;0.00;;;;;;;;;;5069803;28;20051;-61
2022/08/08 02:31:02;;;;;;;0.00;0.00;;;;;;;;;;5089105;28;20059;-61
2022/08/08 02:33:40;;;;;;;0.00;0.00;;;;;;;;;;5089298;28;20507;-61
2022/08/08 02:36:11;;;;;;;0.00;0.00;;;;;;;;;;5089327;28;20020;-61
2022/08/08 02:38:55;;;;;;;0.00;0.00;;;;;;;;;;5089039;28;20032;-60
2022/08/08 02:41:38;;;;;;;0.00;0.00;;;;;;;;;;5089681;28;20461;-61
2022/08/08 02:44:09;;;;;;;0.08;0.08;;;;;;;;;;5089454;28;20031;-60
2022/08/08 02:46:35;;;;;;;0.00;0.00;;;;;;;;;;5087134;28;20530;-60
2022/08/08 02:49:06;;;;;;;0.00;0.00;;;;;;;;;;5069052;28;20044;-60
2022/08/08 02:51:52;;;;;;;0.00;0.00;;;;;;;;;;5068313;28;20865;-59
2022/08/08 02:54:31;;;;;;;0.05;0.05;;;;;;;;;;5067915;28;20050;-60
2022/08/08 02:56:59;;;;;;;0.00;0.00;;;;;;;;;;5069625;28;20028;-60
2022/08/08 02:59:43;;;;;;;0.20;0.20;;;;;;;;;;5068420;28;20107;-60
2022/08/08 03:02:20;;;;;;;0.35;0.35;;;;;;;;;;5068061;28;20075;-60
2022/08/08 03:05:09;;;;;;;0.00;0.00;;;;;;;;;;5068289;28;20028;-60
2022/08/08 03:08:07;;;;;;;0.00;0.00;;;;;;;;;;5076792;28;20023;-60
2022/08/08 03:10:38;;;;;;;0.00;0.00;;;;;;;;;;5054194;28;20353;-60
2022/08/08 03:13:23;;;;;;;0.00;0.00;;;;;;;;;;5077972;28;20428;-59
2022/08/08 03:16:11;;;;;;;0.00;0.00;;;;;;;;;;5050603;28;20047;-59
2022/08/08 03:18:36;;;;;;;0.00;0.00;;;;;;;;;;5068973;28;20024;-60
2022/08/08 03:21:02;;;;;;;0.00;0.00;;;;;;;;;;5081232;28;20487;-60
2022/08/08 03:23:29;;;;;;;0.00;0.00;;;;;;;;;;5078189;28;20020;-59
2022/08/08 03:25:55;;;;;;;0.00;0.00;;;;;;;;;;5068567;28;20127;-60
2022/08/08 03:28:27;;;;;;;0.00;0.00;;;;;;;;;;5068850;28;20047;-59
2022/08/08 03:30:52;;;;;;;0.00;0.00;;;;;;;;;;5050415;28;20025;-60
2022/08/08 03:33:17;;;;;;;0.00;0.00;;;;;;;;;;5068889;28;20116;-60
2022/08/08 03:35:43;;;;;;;0.00;0.00;;;;;;;;;;5068197;28;20032;-60
2022/08/08 03:38:08;;;;;;;0.00;0.00;;;;;;;;;;5067782;28;20024;-60
2022/08/08 03:40:34;;;;;;;0.00;0.00;;;;;;;;;;5068038;28;20032;-61
2022/08/08 03:42:59;;;;;;;0.00;0.00;;;;;;;;;;5068711;28;20070;-61
2022/08/08 03:45:26;;;;;;;0.00;0.00;;;;;;;;;;5068554;28;20056;-60
2022/08/08 03:47:55;;;;;;;0.00;0.00;;;;;;;;;;5068256;28;20044;-60
2022/08/08 03:50:21;;;;;;;0.00;0.00;;;;;;;;;;5068413;28;20076;-60
2022/08/08 03:52:46;;;;;;;0.00;0.00;;;;;;;;;;5067337;28;20060;-60
2022/08/08 03:55:12;;;;;;;0.00;0.00;;;;;;;;;;5068638;28;20456;-59
2022/08/08 03:57:42;;;;;;;0.40;0.40;;;;;;;;;;5067805;28;20029;-60
2022/08/08 04:00:09;;;;;;;0.00;0.00;;;;;;;;;;5068731;28;20032;-61
2022/08/08 04:02:34;;;;;;;0.00;0.00;;;;;;;;;;5067814;28;20028;-61
2022/08/08 04:05:03;;;;;;;0.00;0.00;;;;;;;;;;5071740;28;20020;-61
2022/08/08 04:07:34;;;;;;;0.00;0.00;;;;;;;;;;5070770;28;20382;-61
2022/08/08 04:09:59;;;;;;;0.00;0.00;;;;;;;;;;5071699;28;20025;-61
2022/08/08 04:12:24;;;;;;;0.00;0.00;;;;;;;;;;5071653;28;20078;-61
2022/08/08 04:14:49;;;;;;;0.00;0.00;;;;;;;;;;5071301;28;20020;-60
2022/08/08 04:17:15;;;;;;;0.20;0.20;;;;;;;;;;5072007;28;20039;-60
2022/08/08 04:19:40;;;;;;;0.10;0.10;;;;;;;;;;5071389;28;20021;-60
2022/08/08 04:22:05;;;;;;;0.10;0.10;;;;;;;;;;5070664;28;20438;-61
2022/08/08 04:24:30;;;;;;;0.00;0.00;;;;;;;;;;5053193;28;20166;-59
2022/08/08 04:26:56;;;;;;;0.00;0.00;;;;;;;;;;5071442;28;20465;-59
2022/08/08 04:29:21;;;;;;;0.00;0.00;;;;;;;;;;5071498;28;20021;-60
2022/08/08 04:31:46;;;;;;;0.00;0.00;;;;;;;;;;5071265;28;20377;-61
2022/08/08 04:34:11;;;;;;;0.00;0.00;;;;;;;;;;5071589;28;20027;-59
2022/08/08 04:36:36;;;;;;;0.00;0.00;;;;;;;;;;5073424;28;20038;-62
2022/08/08 04:39:02;;;;;;;0.00;0.00;;;;;;;;;;5091409;28;20489;-62
2022/08/08 04:41:27;;;;;;;0.35;0.35;;;;;;;;;;5090994;28;20032;-61
2022/08/08 04:43:53;;;;;;;0.00;0.00;;;;;;;;;;5090699;28;20023;-61
2022/08/08 04:46:18;;;;;;;0.73;0.70;;;;;;;;;;5072980;28;20018;-61
2022/08/08 04:48:43;;;;;;;0.00;0.00;;;;;;;;;;5089714;28;20105;-61
2022/08/08 04:51:08;;;;;;;0.00;0.00;;;;;;;;;;5069397;28;20802;-60
2022/08/08 04:53:34;;;;;;;0.45;0.45;;;;;;;;;;5070995;28;20378;-61
2022/08/08 04:55:59;;;;;;;0.52;0.38;;;;;;;;;;5070887;28;20086;-62
2022/08/08 04:58:24;;;;;;;0.73;0.73;;;;;;;;;;5070654;28;20029;-59
2022/08/08 05:00:49;;;;;;;0.00;0.00;;;;;;;;;;5070185;28;20531;-62
2022/08/08 05:03:14;;;;;;;0.00;0.00;;;;;;;;;;5070707;28;20020;-61
2022/08/08 05:05:40;;;;;;;0.00;0.00;;;;;;;;;;5070136;28;20017;-61
2022/08/08 05:08:05;;;;;;;1.27;1.25;;;;;;;;;;5070172;28;20029;-60
2022/08/08 05:10:30;;;;;;;0.00;0.00;;;;;;;;;;5070694;28;20032;-60
2022/08/08 05:12:56;;;;;;;0.00;0.00;;;;;;;;;;5069469;28;20035;-60
2022/08/08 05:15:21;;;;;;;0.85;0.85;;;;;;;;;;5069537;28;20028;-61
2022/08/08 05:17:46;;;;;;;0.00;0.00;;;;;;;;;;5069452;28;20370;-59
2022/08/08 05:20:11;;;;;;;0.00;0.00;;;;;;;;;;5070343;28;20031;-61
2022/08/08 05:22:37;;;;;;;0.00;0.00;;;;;;;;;;5070133;28;20449;-61
2022/08/08 05:25:02;;;;;;;0.00;0.00;;;;;;;;;;5070353;28;20510;-61
2022/08/08 05:27:27;;;;;;;0.00;0.00;;;;;;;;;;5070460;28;20020;-61
2022/08/08 05:29:52;;;;;;;0.00;0.00;;;;;;;;;;5069649;28;20020;-61
2022/08/08 05:32:18;;;;;;;0.00;0.00;;;;;;;;;;5069899;28;20012;-60
2022/08/08 05:34:47;;;;;;;0.00;0.00;;;;;;;;;;5069628;28;20099;-61
2022/08/08 05:37:17;;;;;;;0.00;0.00;;;;;;;;;;5069876;28;20037;-62
2022/08/08 05:39:44;;;;;;;0.00;0.00;;;;;;;;;;5069580;28;20078;-62
2022/08/08 05:42:10;;;;;;;0.00;0.00;;;;;;;;;;5070193;28;20033;-63
2022/08/08 05:44:42;;;;;;;0.00;0.00;;;;;;;;;;5077558;28;20017;-64
2022/08/08 05:47:07;;;;;;;0.43;0.00;;;;;;;;;;5076398;28;20027;-60
2022/08/08 05:49:33;;;;;;;0.00;0.00;;;;;;;;;;5058960;28;20053;-61
2022/08/08 05:51:58;;;;;;;0.00;0.00;;;;;;;;;;5034295;28;20065;-62
2022/08/08 05:54:24;;;;;;;0.10;0.10;;;;;;;;;;5034601;28;20040;-62
2022/08/08 05:56:49;;;;;;;0.00;0.00;;;;;;;;;;5037203;28;20025;-62
2022/08/08 05:59:18;;;;;;;1.08;0.38;;;;;;;;;;5041131;28;20025;-61
2022/08/08 06:01:48;;;;;;;0.00;0.00;;;;;;;;;;5037594;28;20100;-61
2022/08/08 06:04:13;;;;;;;0.00;0.00;;;;;;;;;;5045963;28;20029;-62
2022/08/08 06:06:40;;;;;;;0.00;0.00;;;;;;;;;;5048440;28;20024;-62
2022/08/08 06:09:07;;;;;;;0.15;0.15;;;;;;;;;;5048650;28;20028;-61
2022/08/08 06:11:32;;;;;;;0.00;0.00;;;;;;;;;;5048807;28;20021;-62
2022/08/08 06:14:05;;;;;;;0.00;0.00;;;;;;;;;;5049120;28;20033;-62
2022/08/08 06:16:32;;;;;;;0.00;0.00;;;;;;;;;;5056564;28;20024;-62
2022/08/08 06:18:59;;;;;;;0.17;0.10;;;;;;;;;;5049840;28;20074;-62
2022/08/08 06:21:25;;;;;;;0.00;0.00;;;;;;;;;;5048430;28;20033;-61
2022/08/08 06:23:50;;;;;;;0.10;0.10;;;;;;;;;;5034187;28;20079;-60
2022/08/08 06:26:16;;;;;;;0.00;0.00;;;;;;;;;;5048189;28;20033;-60
2022/08/08 06:28:52;;;;;;;0.00;0.00;;;;;;;;;;5047671;28;20134;-62
2022/08/08 06:31:21;;;;;;;0.20;0.20;;;;;;;;;;5050064;28;20096;-61
2022/08/08 06:33:52;;;;;;;0.00;0.00;;;;;;;;;;5051160;28;20107;-61
2022/08/08 06:36:25;;;;;;;0.00;0.00;;;;;;;;;;5030433;28;20029;-61
2022/08/08 06:38:52;;;;;;;0.00;0.00;;;;;;;;;;5047997;28;20128;-62
2022/08/08 06:41:18;;;;;;;0.00;0.00;;;;;;;;;;5048290;28;20013;-62
2022/08/08 06:43:46;;;;;;;0.00;0.00;;;;;;;;;;5047677;28;20086;-62
2022/08/08 06:46:11;;;;;;;0.00;0.00;;;;;;;;;;5054116;28;20063;-62
2022/08/08 06:48:36;;;;;;;0.00;0.00;;;;;;;;;;5047815;28;20397;-62
2022/08/08 06:51:03;;;;;;;0.00;0.00;;;;;;;;;;5068598;28;20041;-62
2022/08/08 06:53:28;;;;;;;0.00;0.00;;;;;;;;;;5068943;28;20262;-62
2022/08/08 06:55:54;;;;;;;0.00;0.00;;;;;;;;;;5069039;28;20143;-61
2022/08/08 06:58:19;;;;;;;0.00;0.00;;;;;;;;;;5069543;28;20028;-61
2022/08/08 07:00:46;;;;;;;0.00;0.00;;;;;;;;;;5067578;28;20027;-62
2022/08/08 07:03:13;;;;;;;0.00;0.00;;;;;;;;;;5066813;28;20137;-61
2022/08/08 07:05:40;;;;;;;1.75;0.43;;;;;;;;;;5064842;28;20021;-62
2022/08/08 07:08:16;;;;;;;0.00;0.00;;;;;;;;;;5064401;28;20028;-62
2022/08/08 07:10:44;;;;;;;0.00;0.00;;;;;;;;;;5061542;28;20041;-62
2022/08/08 07:13:11;;;;;;;0.00;0.00;;;;;;;;;;5075515;28;20036;-62
2022/08/08 07:15:44;;;;;;;0.00;0.00;;;;;;;;;;5069996;28;20523;-63
2022/08/08 07:18:09;;;;;;;0.30;0.30;;;;;;;;;;5070910;28;20032;-63
2022/08/08 07:20:36;;;;;;;0.00;0.00;;;;;;;;;;5089215;28;20020;-64
2022/08/08 07:23:04;;;;;;;0.00;0.00;;;;;;;;;;5088137;28;20081;-63
2022/08/08 07:25:33;;;;;;;20.07;18.03;;;;;;;;;;5089016;28;20028;-62
2022/08/08 07:28:09;;;;;;;0.00;0.00;;;;;;;;;;5088696;28;20583;-63
2022/08/08 07:30:34;;;;;;;0.00;0.00;;;;;;;;;;5089129;28;20024;-61
2022/08/08 07:33:00;;;;;;;0.00;0.00;;;;;;;;;;5074518;28;20557;-63
2022/08/08 07:35:26;;;;;;;0.00;0.00;;;;;;;;;;5067264;28;20356;-62
2022/08/08 07:37:52;;;;;;;0.00;0.00;;;;;;;;;;5068625;28;20357;-62
2022/08/08 07:40:17;;;;;;;0.00;0.00;;;;;;;;;;5072808;28;20024;-62
2022/08/08 07:42:43;;;;;;;0.00;0.00;;;;;;;;;;5070965;28;20017;-62
2022/08/08 07:45:08;;;;;;;0.00;0.00;;;;;;;;;;5072267;28;20028;-62
2022/08/08 07:47:34;;;;;;;0.00;0.00;;;;;;;;;;5072212;28;20025;-61
2022/08/08 07:50:00;;;;;;;0.00;0.00;;;;;;;;;;5071941;28;20048;-62
2022/08/08 07:52:25;;;;;;;0.00;0.00;;;;;;;;;;5072717;28;20507;-61
2022/08/08 07:55:00;;;;;;;1.20;1.17;;;;;;;;;;5072007;28;20051;-61
2022/08/08 07:57:25;;;;;;;0.00;0.00;;;;;;;;;;5072295;28;20079;-61
2022/08/08 07:59:57;;;;;;;0.10;0.10;;;;;;;;;;5071739;28;20036;-62
2022/08/08 08:02:24;;;;;;;0.10;0.10;;;;;;;;;;5076051;28;20031;-61
2022/08/08 08:04:54;;;;;;;0.00;0.00;;;;;;;;;;5092137;28;20024;-60
2022/08/08 08:07:21;;;;;;;0.00;0.00;;;;;;;;;;5092310;28;20020;-61
2022/08/08 08:09:46;;;;;;;0.00;0.00;;;;;;;;;;5091927;28;20012;-61
2022/08/08 08:12:12;;;;;;;0.00;0.00;;;;;;;;;;5075638;28;20036;-61
2022/08/08 08:14:45;;;;;;;0.00;0.00;;;;;;;;;;5072147;28;20291;-62
2022/08/08 08:17:14;;;;;;;0.00;0.00;;;;;;;;;;5072119;28;20029;-62
2022/08/08 08:19:39;;;;;;;0.00;0.00;;;;;;;;;;5071692;28;20028;-64
2022/08/08 08:22:04;;;;;;;0.00;0.00;;;;;;;;;;5053446;28;20043;-64
2022/08/08 08:24:30;;;;;;;0.27;0.27;;;;;;;;;;5071578;28;20421;-63
2022/08/08 08:26:55;;;;;;;0.00;0.00;;;;;;;;;;5071239;28;20255;-62
2022/08/08 08:29:20;;;;;;;0.00;0.00;;;;;;;;;;5072100;28;20259;-62
2022/08/08 08:31:46;;;;;;;0.00;0.00;;;;;;;;;;5073293;28;20027;-64
2022/08/08 08:34:11;;;;;;;0.00;0.00;;;;;;;;;;5091820;28;20604;-68
2022/08/08 08:36:37;;;;;;;0.00;0.00;;;;;;;;;;5092302;28;20480;-63
2022/08/08 08:39:02;;;;;;;0.25;0.25;;;;;;;;;;5075312;28;20051;-61
2022/08/08 08:41:28;;;;;;;0.00;0.00;;;;;;;;;;5075354;28;20067;-60
2022/08/08 08:43:53;;;;;;;0.20;0.15;;;;;;;;;;5070878;28;20255;-61
2022/08/08 08:46:19;;;;;;;0.00;0.00;;;;;;;;;;5080233;28;20696;-61
2022/08/08 08:48:45;;;;;;;0.00;0.00;;;;;;;;;;5081657;28;20029;-60
2022/08/08 08:51:14;;;;;;;0.00;0.00;;;;;;;;;;5071201;28;20473;-60
2022/08/08 08:53:44;;;;;;;0.00;0.00;;;;;;;;;;5071333;28;20497;-60
2022/08/08 08:56:10;;;;;;;0.00;0.00;;;;;;;;;;5071263;28;20397;-61
2022/08/08 08:58:38;;;;;;;0.38;0.25;;;;;;;;;;5081159;28;20020;-59
2022/08/08 09:01:04;;;;;;;0.05;0.05;;;;;;;;;;5090929;28;20032;-61
2022/08/08 09:03:29;;;;;;;0.00;0.00;;;;;;;;;;5072021;28;20039;-60
2022/08/08 09:05:55;;;;;;;0.00;0.00;;;;;;;;;;5070543;28;20017;-60
2022/08/08 09:08:22;;;;;;;0.00;0.00;;;;;;;;;;5085424;28;20027;-61
2022/08/08 09:10:48;;;;;;;0.00;0.00;;;;;;;;;;5074248;28;20020;-61
2022/08/08 09:13:14;;;;;;;0.00;0.00;;;;;;;;;;5084328;28;20043;-60
2022/08/08 09:15:40;;;;;;;0.35;0.35;;;;;;;;;;5077679;28;20068;-60
2022/08/08 09:18:05;;;;;;;0.00;0.00;;;;;;;;;;5060500;28;20035;-61
2022/08/08 09:20:31;;;;;;;0.10;0.03;;;;;;;;;;5058611;28;20043;-59
2022/08/08 09:22:57;;;;;;;0.00;0.00;;;;;;;;;;5070473;28;20034;-60
2022/08/08 09:25:23;;;;;;;0.00;0.00;;;;;;;;;;5072208;28;20103;-60
2022/08/08 09:27:48;;;;;;;0.00;0.00;;;;;;;;;;5047797;28;20730;-60
2022/08/08 09:30:14;;;;;;;0.10;0.10;;;;;;;;;;5069745;28;20021;-61
2022/08/08 09:32:41;;;;;;;0.00;0.00;;;;;;;;;;5072073;28;20435;-61
2022/08/08 09:35:11;;;;;;;0.05;0.05;;;;;;;;;;5080981;28;20085;-61
2022/08/08 09:37:39;;;;;;;0.00;0.00;;;;;;;;;;5081243;28;20449;-60
2022/08/08 09:40:05;;;;;;;0.40;0.32;;;;;;;;;;5065975;28;20740;-59
2022/08/08 09:42:32;;;;;;;0.00;0.00;;;;;;;;;;5078463;28;20035;-59
2022/08/08 09:45:08;;;;;;;0.00;0.00;;;;;;;;;;5072988;28;20082;-59
2022/08/08 09:47:35;;;;;;;0.00;0.00;;;;;;;;;;5073302;28;20134;-59
2022/08/08 09:50:03;;;;;;;1.55;1.45;;;;;;;;;;5071460;28;20098;-59
2022/08/08 09:52:30;;;;;;;0.45;0.45;;;;;;;;;;5068169;28;20029;-59
2022/08/08 09:54:55;;;;;;;0.00;0.00;;;;;;;;;;5071442;28;20029;-60
2022/08/08 09:57:31;;;;;;;0.00;0.00;;;;;;;;;;5078103;28;20026;-60
2022/08/08 09:59:58;;;;;;;0.45;0.45;;;;;;;;;;5067506;28;20027;-59
2022/08/08 10:02:27;;;;;;;0.00;0.00;;;;;;;;;;5074251;28;20489;-61
2022/08/08 10:04:58;;;;;;;0.00;0.00;;;;;;;;;;5090011;28;20058;-59
2022/08/08 10:07:23;;;;;;;0.10;0.10;;;;;;;;;;5074160;28;20016;-59
2022/08/08 10:09:49;;;;;;;0.10;0.07;;;;;;;;;;5069513;28;20016;-60
2022/08/08 10:12:15;;;;;;;0.00;0.00;;;;;;;;;;5070024;28;20262;-60
2022/08/08 10:14:40;;;;;;;0.22;0.22;;;;;;;;;;5069502;28;20401;-61
2022/08/08 10:17:07;;;;;;;0.00;0.00;;;;;;;;;;5070035;28;20366;-59
2022/08/08 10:19:33;;;;;;;0.00;0.00;;;;;;;;;;5068765;28;20025;-60
2022/08/08 10:21:59;;;;;;;0.00;0.00;;;;;;;;;;5068821;28;20020;-61
2022/08/08 10:24:25;;;;;;;0.00;0.00;;;;;;;;;;5069540;28;20435;-60
2022/08/08 10:26:54;;;;;;;0.00;0.00;;;;;;;;;;5068550;28;20016;-60
2022/08/08 10:29:39;;;;;;;0.00;0.00;;;;;;;;;;5068307;28;20024;-60
2022/08/08 10:34:51;;;;;;;0.00;0.00;;;;;;;;;;5081053;28;20032;-59
2022/08/08 10:37:24;;;;;;;0.00;0.00;;;;;;;;;;5068695;28;20219;-61
2022/08/08 10:39:50;;;;;;;0.00;0.00;;;;;;;;;;5072546;28;20107;-60
2022/08/08 10:42:17;;;;;;;0.20;0.03;;;;;;;;;;5089607;28;20103;-62
2022/08/08 10:44:43;;;;;;;0.60;0.60;;;;;;;;;;5089517;28;20016;-61
2022/08/08 10:47:09;;;;;;;0.00;0.00;;;;;;;;;;5088739;28;20112;-61
2022/08/08 10:49:34;;;;;;;0.00;0.00;;;;;;;;;;5089159;28;20044;-61
2022/08/08 10:52:00;;;;;;;0.00;0.00;;;;;;;;;;5083910;28;20033;-60
2022/08/08 10:54:25;;;;;;;0.00;0.00;;;;;;;;;;5088711;28;20111;-60
2022/08/08 10:57:00;;;;;;;0.00;0.00;;;;;;;;;;5088883;28;20258;-60
2022/08/08 10:59:25;;;;;;;0.03;0.03;;;;;;;;;;5075033;28;20043;-60
2022/08/08 11:01:51;;;;;;;0.00;0.00;;;;;;;;;;5075548;28;20127;-60
2022/08/08 11:04:16;;;;;;;0.00;0.00;;;;;;;;;;5082158;28;20400;-60
2022/08/08 11:06:41;;;;;;;0.80;0.32;;;;;;;;;;5069331;28;20096;-61
2022/08/08 11:09:07;;;;;;;0.00;0.00;;;;;;;;;;5068828;28;20024;-60
2022/08/08 11:11:52;;;;;;;0.00;0.00;;;;;;;;;;5069307;28;20028;-60
2022/08/08 11:14:18;;;;;;;0.00;0.00;;;;;;;;;;5076306;28;20025;-60
2022/08/08 11:16:44;;;;;;;0.43;0.43;;;;;;;;;;5073474;28;20020;-61
2022/08/08 11:19:10;;;;;;;0.00;0.00;;;;;;;;;;5081790;28;20532;-62
2022/08/08 11:21:40;;;;;;;0.10;0.10;;;;;;;;;;5072941;28;20191;-60
2022/08/08 11:24:07;;;;;;;0.00;0.00;;;;;;;;;;5072636;28;20017;-60
2022/08/08 11:26:33;;;;;;;0.00;0.00;;;;;;;;;;5080430;28;20024;-60
2022/08/08 11:29:03;;;;;;;0.00;0.00;;;;;;;;;;5066670;28;21484;-61
2022/08/08 11:31:31;;;;;;;0.00;0.00;;;;;;;;;;5085643;28;20020;-60
2022/08/08 11:33:59;;;;;;;0.00;0.00;;;;;;;;;;5071800;28;20013;-60
2022/08/08 11:36:25;;;;;;;0.00;0.00;;;;;;;;;;5078615;28;20044;-60
2022/08/08 11:38:51;;;;;;;0.00;0.00;;;;;;;;;;5077942;28;20090;-59
2022/08/08 11:41:17;;;;;;;0.00;0.00;;;;;;;;;;5070986;28;20115;-60
2022/08/08 11:43:43;;;;;;;0.00;0.00;;;;;;;;;;5072702;28;20021;-60
2022/08/08 11:46:09;;;;;;;0.10;0.10;;;;;;;;;;5071951;28;20122;-60
2022/08/08 11:48:34;;;;;;;0.00;0.00;;;;;;;;;;5072055;28;20024;-60
2022/08/08 11:51:00;;;;;;;0.00;0.00;;;;;;;;;;5072206;28;20040;-60
2022/08/08 11:53:25;;;;;;;0.00;0.00;;;;;;;;;;5072340;28;20028;-60
2022/08/08 11:55:51;;;;;;;3.92;1.05;;;;;;;;;;5071814;28;20062;-60
2022/08/08 11:58:17;;;;;;;0.00;0.00;;;;;;;;;;5071508;28;20429;-60
2022/08/08 12:00:43;;;;;;;0.00;0.00;;;;;;;;;;5072204;28;20029;-61
2022/08/08 12:03:19;;;;;;;0.00;0.00;;;;;;;;;;5070840;28;20035;-60
2022/08/08 12:05:45;;;;;;;0.00;0.00;;;;;;;;;;5070902;28;20103;-60
2022/08/08 12:08:11;;;;;;;0.00;0.00;;;;;;;;;;5072044;28;20020;-60
2022/08/08 12:10:45;;;;;;;0.00;0.00;;;;;;;;;;5071386;28;20377;-60
2022/08/08 12:13:13;;;;;;;0.00;0.00;;;;;;;;;;5071054;28;20028;-60
2022/08/08 12:15:39;;;;;;;0.00;0.00;;;;;;;;;;5070661;28;20024;-60
2022/08/08 12:18:14;;;;;;;0.00;0.00;;;;;;;;;;5071131;28;20032;-60
2022/08/08 12:20:40;;;;;;;0.32;0.32;;;;;;;;;;5061641;28;20060;-59
2022/08/08 12:23:05;;;;;;;0.00;0.00;;;;;;;;;;5069651;28;20131;-60
2022/08/08 12:25:32;;;;;;;0.00;0.00;;;;;;;;;;5078951;28;20020;-60
2022/08/08 12:28:13;;;;;;;0.00;0.00;;;;;;;;;;5073566;28;20097;-61
2022/08/08 12:30:43;;;;;;;0.30;0.30;;;;;;;;;;5069514;28;20021;-60
2022/08/08 12:33:24;;;;;;;0.00;0.00;;;;;;;;;;5063690;28;20078;-60
2022/08/08 12:35:49;;;;;;;0.00;0.00;;;;;;;;;;5068261;28;20032;-60
2022/08/08 12:38:14;;;;;;;0.00;0.00;;;;;;;;;;5073216;28;20028;-59
2022/08/08 12:40:41;;;;;;;0.00;0.00;;;;;;;;;;5076239;28;20393;-59
2022/08/08 12:43:06;;;;;;;0.17;0.17;;;;;;;;;;5070592;28;20107;-59
2022/08/08 12:45:36;;;;;;;0.10;0.10;;;;;;;;;;5069962;28;20544;-60
2022/08/08 12:48:02;;;;;;;0.00;0.00;;;;;;;;;;5070025;28;20075;-59
2022/08/08 12:50:37;;;;;;;0.03;0.03;;;;;;;;;;5066474;28;20493;-60
2022/08/08 12:53:02;;;;;;;0.00;0.00;;;;;;;;;;5071724;28;20066;-60
2022/08/08 12:55:27;;;;;;;0.13;0.13;;;;;;;;;;5070616;28;20043;-61
2022/08/08 12:57:52;;;;;;;0.10;0.10;;;;;;;;;;5076016;28;20259;-60
2022/08/08 13:00:25;;;;;;;0.10;0.10;;;;;;;;;;5077368;28;20065;-61
2022/08/08 13:02:56;;;;;;;0.32;0.32;;;;;;;;;;5069319;28;20270;-61
2022/08/08 13:05:23;;;;;;;0.00;0.00;;;;;;;;;;5073330;28;20082;-60
2022/08/08 13:07:48;;;;;;;0.20;0.20;;;;;;;;;;5048749;28;20028;-61
2022/08/08 13:10:13;;;;;;;0.00;0.00;;;;;;;;;;5066900;28;20012;-60
2022/08/08 13:12:40;;;;;;;0.00;0.00;;;;;;;;;;5071361;28;20025;-62
2022/08/08 13:15:10;;;;;;;0.30;0.30;;;;;;;;;;5068123;28;20024;-60
2022/08/08 13:17:36;;;;;;;0.00;0.00;;;;;;;;;;5063251;28;20032;-61
2022/08/08 13:20:04;;;;;;;0.00;0.00;;;;;;;;;;5063800;28;20024;-60
2022/08/08 13:22:33;;;;;;;0.05;0.05;;;;;;;;;;5069808;28;20039;-60
2022/08/08 13:24:59;;;;;;;0.00;0.00;;;;;;;;;;5069749;28;20449;-60
2022/08/08 13:27:28;;;;;;;0.00;0.00;;;;;;;;;;5068154;28;20020;-61
2022/08/08 13:29:57;;;;;;;0.00;0.00;;;;;;;;;;5065485;28;20075;-60
2022/08/08 13:32:23;;;;;;;0.00;0.00;;;;;;;;;;5069051;28;20421;-60
2022/08/08 13:34:52;;;;;;;0.00;0.00;;;;;;;;;;5086294;28;20493;-59
2022/08/08 13:37:17;;;;;;;0.38;0.08;;;;;;;;;;5070462;28;20024;-59
2022/08/08 13:39:43;;;;;;;0.00;0.00;;;;;;;;;;5074089;28;20080;-60
2022/08/08 13:42:09;;;;;;;0.00;0.00;;;;;;;;;;5070632;28;20043;-60
2022/08/08 13:44:34;;;;;;;0.00;0.00;;;;;;;;;;5069115;28;20039;-59
2022/08/08 13:47:00;;;;;;;0.00;0.00;;;;;;;;;;5068078;28;20032;-59
2022/08/08 13:49:29;;;;;;;0.30;0.30;;;;;;;;;;5065944;28;20142;-59
2022/08/08 13:52:00;;;;;;;0.00;0.00;;;;;;;;;;5068965;28;20032;-60
2022/08/08 13:54:28;;;;;;;0.00;0.00;;;;;;;;;;5064534;28;20036;-59
2022/08/08 13:57:04;;;;;;;0.00;0.00;;;;;;;;;;5066096;28;20410;-60
2022/08/08 13:59:34;;;;;;;0.00;0.00;;;;;;;;;;5066437;28;20035;-58
2022/08/08 14:02:00;;;;;;;0.00;0.00;;;;;;;;;;5065941;28;20028;-60
2022/08/08 14:04:26;;;;;;;0.00;0.00;;;;;;;;;;5065742;28;20363;-59
2022/08/08 14:06:58;;;;;;;0.00;0.00;;;;;;;;;;5060272;28;20023;-60
2022/08/08 14:09:34;;;;;;;0.03;0.03;;;;;;;;;;5064897;28;20100;-60
2022/08/08 14:11:59;;;;;;;0.00;0.00;;;;;;;;;;5056808;28;20075;-59
2022/08/08 14:14:45;;;;;;;0.00;0.00;;;;;;;;;;5055475;28;20036;-60
2022/08/08 14:17:11;;;;;;;0.00;0.00;;;;;;;;;;5063675;28;20041;-60
2022/08/08 14:19:38;;;;;;;0.00;0.00;;;;;;;;;;5066162;28;20052;-59
2022/08/08 14:22:18;;;;;;;0.00;0.00;;;;;;;;;;5064593;28;20031;-59
2022/08/08 14:25:10;;;;;;;0.00;0.00;;;;;;;;;;5065623;28;20470;-60
2022/08/08 14:27:37;;;;;;;0.00;0.00;;;;;;;;;;5064720;28;20403;-61
2022/08/08 14:30:02;;;;;;;0.20;0.15;;;;;;;;;;5065293;28;20021;-60
2022/08/08 14:32:28;;;;;;;0.00;0.00;;;;;;;;;;5066139;28;20115;-59
2022/08/08 14:34:54;;;;;;;0.00;0.00;;;;;;;;;;5065618;28;20036;-59
2022/08/08 14:37:21;;;;;;;0.00;0.00;;;;;;;;;;5064948;28;20024;-60
2022/08/08 14:39:56;;;;;;;0.00;0.00;;;;;;;;;;5065234;28;20036;-60
2022/08/08 14:42:29;;;;;;;2.83;1.05;;;;;;;;;;5065751;28;20017;-59
2022/08/08 14:44:55;;;;;;;0.00;0.00;;;;;;;;;;5063225;28;20094;-59
2022/08/08 14:47:21;;;;;;;0.00;0.00;;;;;;;;;;5065394;28;20035;-59
2022/08/08 14:49:46;;;;;;;0.00;0.00;;;;;;;;;;5065381;28;20020;-60
2022/08/08 14:52:11;;;;;;;0.00;0.00;;;;;;;;;;5064843;28;20047;-60
2022/08/08 14:54:46;;;;;;;0.00;0.00;;;;;;;;;;5064038;28;20267;-59
2022/08/08 14:57:12;;;;;;;0.00;0.00;;;;;;;;;;5063501;28;20588;-59